sensor_id;sensor_type;location;lat;lon;timestamp;P1;durP1;ratioP1;P2;durP2;ratioP2
63346;SDS011;49472;49.880;8.650;2022-08-16T00:00:26;14.93;;;13.67;;
63346;SDS011;49472;49.880;8.650;2022-08-16T00:02:53;14.40;;;13.37;;
63346;SDS011;49472;49.880;8.650;2022-08-16T00:05:19;15.77;;;14.33;;
63346;SDS011;49472;49.880;8.650;2022-08-16T00:07:44;15.73;;;14.63;;
63346;SDS011;49472;49.880;8.650;2022-08-16T00:10:11;19.80;;;14.10;;
63346;SDS011;49472;49.880;8.650;2022-08-16T00:12:37;14.73;;;13.70;;
63346;SDS011;49472;49.880;8.650;2022-08-16T00:15:07;15.90;;;14.50;;
63346;SDS011;49472;49.880;8.650;2022-08-16T00:17:33;14.90;;;13.90;;
63346;SDS011;49472;49.880;8.650;2022-08-16T00:19:58;15.57;;;14.13;;
63346;SDS011;49472;49.880;8.650;2022-08-16T00:22:24;15.73;;;14.50;;
63346;SDS011;49472;49.880;8.650;2022-08-16T00:24:49;16.07;;;14.43;;
63346;SDS011;49472;49.880;8.650;2022-08-16T00:27:14;16.73;;;14.50;;
63346;SDS011;49472;49.880;8.650;2022-08-16T00:29:40;15.90;;;14.60;;
63346;SDS011;49472;49.880;8.650;2022-08-16T00:32:06;15.40;;;14.00;;
63346;SDS011;49472;49.880;8.650;2022-08-16T00:34:31;15.10;;;13.63;;
63346;SDS011;49472;49.880;8.650;2022-08-16T00:36:57;22.47;;;15.00;;
63346;SDS011;49472;49.880;8.650;2022-08-16T00:39:22;15.33;;;14.07;;
63346;SDS011;49472;49.880;8.650;2022-08-16T00:41:48;14.67;;;13.67;;
63346;SDS011;49472;49.880;8.650;2022-08-16T00:44:14;17.23;;;14.50;;
63346;SDS011;49472;49.880;8.650;2022-08-16T00:46:48;15.53;;;14.40;;
63346;SDS011;49472;49.880;8.650;2022-08-16T00:49:15;16.23;;;14.77;;
63346;SDS011;49472;49.880;8.650;2022-08-16T00:51:41;16.00;;;14.70;;
63346;SDS011;49472;49.880;8.650;2022-08-16T00:54:06;14.70;;;13.60;;
63346;SDS011;49472;49.880;8.650;2022-08-16T00:56:33;15.73;;;14.43;;
63346;SDS011;49472;49.880;8.650;2022-08-16T00:59:00;16.30;;;14.90;;
63346;SDS011;49472;49.880;8.650;2022-08-16T01:01:25;15.63;;;14.30;;
63346;SDS011;49472;49.880;8.650;2022-08-16T01:03:51;15.60;;;14.47;;
63346;SDS011;49472;49.880;8.650;2022-08-16T01:06:17;16.57;;;15.17;;
63346;SDS011;49472;49.880;8.650;2022-08-16T01:08:46;16.47;;;15.00;;
63346;SDS011;49472;49.880;8.650;2022-08-16T01:11:12;17.27;;;15.70;;
63346;SDS011;49472;49.880;8.650;2022-08-16T01:13:38;15.47;;;14.27;;
63346;SDS011;49472;49.880;8.650;2022-08-16T01:16:13;15.77;;;14.57;;
63346;SDS011;49472;49.880;8.650;2022-08-16T01:18:43;17.03;;;15.30;;
63346;SDS011;49472;49.880;8.650;2022-08-16T01:21:24;16.23;;;15.03;;
63346;SDS011;49472;49.880;8.650;2022-08-16T01:23:59;15.43;;;14.13;;
63346;SDS011;49472;49.880;8.650;2022-08-16T01:26:27;16.50;;;15.10;;
63346;SDS011;49472;49.880;8.650;2022-08-16T01:28:58;18.23;;;16.50;;
63346;SDS011;49472;49.880;8.650;2022-08-16T01:31:24;16.70;;;15.50;;
63346;SDS011;49472;49.880;8.650;2022-08-16T01:33:50;15.73;;;14.27;;
63346;SDS011;49472;49.880;8.650;2022-08-16T01:36:15;27.47;;;14.47;;
63346;SDS011;49472;49.880;8.650;2022-08-16T01:38:42;15.80;;;14.70;;
63346;SDS011;49472;49.880;8.650;2022-08-16T01:41:12;16.50;;;15.20;;
63346;SDS011;49472;49.880;8.650;2022-08-16T01:43:39;18.23;;;15.00;;
63346;SDS011;49472;49.880;8.650;2022-08-16T01:46:08;16.40;;;15.20;;
63346;SDS011;49472;49.880;8.650;2022-08-16T01:48:34;17.40;;;15.80;;
63346;SDS011;49472;49.880;8.650;2022-08-16T01:50:59;16.10;;;14.80;;
63346;SDS011;49472;49.880;8.650;2022-08-16T01:53:25;16.93;;;15.70;;
63346;SDS011;49472;49.880;8.650;2022-08-16T01:55:51;16.10;;;14.60;;
63346;SDS011;49472;49.880;8.650;2022-08-16T01:58:16;14.80;;;13.80;;
63346;SDS011;49472;49.880;8.650;2022-08-16T02:00:42;16.47;;;14.90;;
63346;SDS011;49472;49.880;8.650;2022-08-16T02:03:07;26.33;;;15.50;;
63346;SDS011;49472;49.880;8.650;2022-08-16T02:05:33;16.00;;;14.40;;
63346;SDS011;49472;49.880;8.650;2022-08-16T02:07:58;18.23;;;15.73;;
63346;SDS011;49472;49.880;8.650;2022-08-16T02:10:24;17.63;;;16.00;;
63346;SDS011;49472;49.880;8.650;2022-08-16T02:12:50;17.00;;;15.80;;
63346;SDS011;49472;49.880;8.650;2022-08-16T02:15:16;17.80;;;16.30;;
63346;SDS011;49472;49.880;8.650;2022-08-16T02:17:42;17.90;;;16.20;;
63346;SDS011;49472;49.880;8.650;2022-08-16T02:20:08;18.57;;;16.63;;
63346;SDS011;49472;49.880;8.650;2022-08-16T02:22:33;17.60;;;16.23;;
63346;SDS011;49472;49.880;8.650;2022-08-16T02:24:59;17.77;;;15.57;;
63346;SDS011;49472;49.880;8.650;2022-08-16T02:27:24;17.90;;;16.03;;
63346;SDS011;49472;49.880;8.650;2022-08-16T02:29:49;16.90;;;15.23;;
63346;SDS011;49472;49.880;8.650;2022-08-16T02:32:15;17.33;;;15.37;;
63346;SDS011;49472;49.880;8.650;2022-08-16T02:34:41;16.10;;;14.80;;
63346;SDS011;49472;49.880;8.650;2022-08-16T02:37:06;16.93;;;15.63;;
63346;SDS011;49472;49.880;8.650;2022-08-16T02:39:31;17.20;;;15.50;;
63346;SDS011;49472;49.880;8.650;2022-08-16T02:41:57;18.43;;;16.77;;
63346;SDS011;49472;49.880;8.650;2022-08-16T02:44:22;18.17;;;16.20;;
63346;SDS011;49472;49.880;8.650;2022-08-16T02:46:48;16.93;;;15.43;;
63346;SDS011;49472;49.880;8.650;2022-08-16T02:49:13;16.63;;;15.13;;
63346;SDS011;49472;49.880;8.650;2022-08-16T02:51:39;17.70;;;15.97;;
63346;SDS011;49472;49.880;8.650;2022-08-16T02:54:05;16.30;;;14.80;;
63346;SDS011;49472;49.880;8.650;2022-08-16T02:56:30;18.33;;;16.60;;
63346;SDS011;49472;49.880;8.650;2022-08-16T02:58:56;17.43;;;15.80;;
63346;SDS011;49472;49.880;8.650;2022-08-16T03:01:22;16.53;;;15.10;;
63346;SDS011;49472;49.880;8.650;2022-08-16T03:03:49;18.10;;;16.30;;
63346;SDS011;49472;49.880;8.650;2022-08-16T03:06:14;16.23;;;15.03;;
63346;SDS011;49472;49.880;8.650;2022-08-16T03:08:43;17.23;;;15.93;;
63346;SDS011;49472;49.880;8.650;2022-08-16T03:11:08;17.57;;;16.17;;
63346;SDS011;49472;49.880;8.650;2022-08-16T03:13:33;18.37;;;16.77;;
63346;SDS011;49472;49.880;8.650;2022-08-16T03:15:59;19.03;;;17.53;;
63346;SDS011;49472;49.880;8.650;2022-08-16T03:18:24;18.00;;;16.43;;
63346;SDS011;49472;49.880;8.650;2022-08-16T03:20:49;18.53;;;17.10;;
63346;SDS011;49472;49.880;8.650;2022-08-16T03:23:14;18.90;;;16.87;;
63346;SDS011;49472;49.880;8.650;2022-08-16T03:25:39;18.60;;;16.90;;
63346;SDS011;49472;49.880;8.650;2022-08-16T03:28:05;19.37;;;17.50;;
63346;SDS011;49472;49.880;8.650;2022-08-16T03:30:31;18.10;;;16.57;;
63346;SDS011;49472;49.880;8.650;2022-08-16T03:32:57;18.60;;;17.10;;
63346;SDS011;49472;49.880;8.650;2022-08-16T03:35:24;19.87;;;17.87;;
63346;SDS011;49472;49.880;8.650;2022-08-16T03:37:52;19.17;;;17.10;;
63346;SDS011;49472;49.880;8.650;2022-08-16T03:40:18;17.87;;;16.47;;
63346;SDS011;49472;49.880;8.650;2022-08-16T03:42:43;18.70;;;16.90;;
63346;SDS011;49472;49.880;8.650;2022-08-16T03:45:08;18.50;;;16.90;;
63346;SDS011;49472;49.880;8.650;2022-08-16T03:47:34;18.37;;;16.80;;
63346;SDS011;49472;49.880;8.650;2022-08-16T03:49:59;18.43;;;16.80;;
63346;SDS011;49472;49.880;8.650;2022-08-16T03:52:24;18.50;;;16.20;;
63346;SDS011;49472;49.880;8.650;2022-08-16T03:54:50;18.10;;;16.70;;
63346;SDS011;49472;49.880;8.650;2022-08-16T03:57:16;18.13;;;16.20;;
63346;SDS011;49472;49.880;8.650;2022-08-16T03:59:41;19.33;;;17.50;;
63346;SDS011;49472;49.880;8.650;2022-08-16T04:02:06;18.30;;;16.87;;
63346;SDS011;49472;49.880;8.650;2022-08-16T04:04:32;20.03;;;18.47;;
63346;SDS011;49472;49.880;8.650;2022-08-16T04:07:00;18.40;;;16.53;;
63346;SDS011;49472;49.880;8.650;2022-08-16T04:09:27;23.53;;;16.60;;
63346;SDS011;49472;49.880;8.650;2022-08-16T04:11:53;20.50;;;17.33;;
63346;SDS011;49472;49.880;8.650;2022-08-16T04:14:18;19.37;;;17.67;;
63346;SDS011;49472;49.880;8.650;2022-08-16T04:16:43;18.93;;;17.07;;
63346;SDS011;49472;49.880;8.650;2022-08-16T04:19:08;18.70;;;17.20;;
63346;SDS011;49472;49.880;8.650;2022-08-16T04:21:34;18.33;;;16.83;;
63346;SDS011;49472;49.880;8.650;2022-08-16T04:23:59;19.40;;;17.60;;
63346;SDS011;49472;49.880;8.650;2022-08-16T04:26:25;20.10;;;18.40;;
63346;SDS011;49472;49.880;8.650;2022-08-16T04:28:50;17.90;;;16.30;;
63346;SDS011;49472;49.880;8.650;2022-08-16T04:31:15;20.43;;;18.27;;
63346;SDS011;49472;49.880;8.650;2022-08-16T04:33:40;19.07;;;17.47;;
63346;SDS011;49472;49.880;8.650;2022-08-16T04:36:06;19.97;;;18.03;;
63346;SDS011;49472;49.880;8.650;2022-08-16T04:38:31;19.30;;;17.30;;
63346;SDS011;49472;49.880;8.650;2022-08-16T04:40:56;20.37;;;18.40;;
63346;SDS011;49472;49.880;8.650;2022-08-16T04:43:22;21.30;;;19.07;;
63346;SDS011;49472;49.880;8.650;2022-08-16T04:45:48;20.47;;;18.80;;
63346;SDS011;49472;49.880;8.650;2022-08-16T04:48:13;20.40;;;18.53;;
63346;SDS011;49472;49.880;8.650;2022-08-16T04:50:39;20.20;;;18.23;;
63346;SDS011;49472;49.880;8.650;2022-08-16T04:53:04;19.57;;;17.77;;
63346;SDS011;49472;49.880;8.650;2022-08-16T04:55:29;20.37;;;18.87;;
63346;SDS011;49472;49.880;8.650;2022-08-16T04:57:55;22.60;;;20.20;;
63346;SDS011;49472;49.880;8.650;2022-08-16T05:00:22;22.47;;;20.37;;
63346;SDS011;49472;49.880;8.650;2022-08-16T05:02:48;22.40;;;20.13;;
63346;SDS011;49472;49.880;8.650;2022-08-16T05:05:15;21.37;;;19.37;;
63346;SDS011;49472;49.880;8.650;2022-08-16T05:07:41;22.13;;;20.13;;
63346;SDS011;49472;49.880;8.650;2022-08-16T05:10:06;22.27;;;20.10;;
63346;SDS011;49472;49.880;8.650;2022-08-16T05:12:32;21.90;;;19.93;;
63346;SDS011;49472;49.880;8.650;2022-08-16T05:14:57;22.20;;;20.00;;
63346;SDS011;49472;49.880;8.650;2022-08-16T05:17:23;22.90;;;20.90;;
63346;SDS011;49472;49.880;8.650;2022-08-16T05:19:48;23.13;;;20.80;;
63346;SDS011;49472;49.880;8.650;2022-08-16T05:22:14;22.70;;;20.50;;
63346;SDS011;49472;49.880;8.650;2022-08-16T05:24:39;23.47;;;21.37;;
63346;SDS011;49472;49.880;8.650;2022-08-16T05:27:04;24.00;;;21.70;;
63346;SDS011;49472;49.880;8.650;2022-08-16T05:29:29;23.53;;;21.30;;
63346;SDS011;49472;49.880;8.650;2022-08-16T05:31:55;24.57;;;22.30;;
63346;SDS011;49472;49.880;8.650;2022-08-16T05:34:20;25.00;;;22.00;;
63346;SDS011;49472;49.880;8.650;2022-08-16T05:36:48;33.47;;;23.00;;
63346;SDS011;49472;49.880;8.650;2022-08-16T05:39:14;21.87;;;20.00;;
63346;SDS011;49472;49.880;8.650;2022-08-16T05:41:39;23.30;;;21.10;;
63346;SDS011;49472;49.880;8.650;2022-08-16T05:44:04;22.17;;;19.97;;
63346;SDS011;49472;49.880;8.650;2022-08-16T05:46:29;23.80;;;21.43;;
63346;SDS011;49472;49.880;8.650;2022-08-16T05:48:55;22.13;;;20.13;;
63346;SDS011;49472;49.880;8.650;2022-08-16T05:51:20;22.47;;;20.13;;
63346;SDS011;49472;49.880;8.650;2022-08-16T05:53:45;23.97;;;21.50;;
63346;SDS011;49472;49.880;8.650;2022-08-16T05:56:10;24.47;;;21.97;;
63346;SDS011;49472;49.880;8.650;2022-08-16T05:58:36;40.37;;;23.20;;
63346;SDS011;49472;49.880;8.650;2022-08-16T06:01:01;23.37;;;21.23;;
63346;SDS011;49472;49.880;8.650;2022-08-16T06:03:26;22.10;;;20.30;;
63346;SDS011;49472;49.880;8.650;2022-08-16T06:05:52;21.43;;;19.63;;
63346;SDS011;49472;49.880;8.650;2022-08-16T06:08:17;22.63;;;20.83;;
63346;SDS011;49472;49.880;8.650;2022-08-16T06:10:42;24.53;;;21.23;;
63346;SDS011;49472;49.880;8.650;2022-08-16T06:13:07;22.40;;;20.20;;
63346;SDS011;49472;49.880;8.650;2022-08-16T06:15:33;22.87;;;20.47;;
63346;SDS011;49472;49.880;8.650;2022-08-16T06:17:58;27.27;;;20.03;;
63346;SDS011;49472;49.880;8.650;2022-08-16T06:20:25;22.33;;;20.47;;
63346;SDS011;49472;49.880;8.650;2022-08-16T06:22:53;22.37;;;20.47;;
63346;SDS011;49472;49.880;8.650;2022-08-16T06:25:22;21.73;;;19.43;;
63346;SDS011;49472;49.880;8.650;2022-08-16T06:27:48;22.23;;;20.33;;
63346;SDS011;49472;49.880;8.650;2022-08-16T06:30:13;23.00;;;20.60;;
63346;SDS011;49472;49.880;8.650;2022-08-16T06:32:38;24.13;;;21.83;;
63346;SDS011;49472;49.880;8.650;2022-08-16T06:35:04;23.47;;;21.47;;
63346;SDS011;49472;49.880;8.650;2022-08-16T06:37:29;22.10;;;20.10;;
63346;SDS011;49472;49.880;8.650;2022-08-16T06:39:55;23.50;;;21.40;;
63346;SDS011;49472;49.880;8.650;2022-08-16T06:42:20;23.50;;;21.30;;
63346;SDS011;49472;49.880;8.650;2022-08-16T06:44:45;21.93;;;19.93;;
63346;SDS011;49472;49.880;8.650;2022-08-16T06:47:10;22.67;;;20.53;;
63346;SDS011;49472;49.880;8.650;2022-08-16T06:49:37;22.40;;;20.30;;
63346;SDS011;49472;49.880;8.650;2022-08-16T06:52:02;21.47;;;19.77;;
63346;SDS011;49472;49.880;8.650;2022-08-16T06:54:28;23.50;;;21.40;;
63346;SDS011;49472;49.880;8.650;2022-08-16T06:56:53;23.13;;;21.03;;
63346;SDS011;49472;49.880;8.650;2022-08-16T06:59:18;23.60;;;21.43;;
63346;SDS011;49472;49.880;8.650;2022-08-16T07:01:44;23.57;;;21.23;;
63346;SDS011;49472;49.880;8.650;2022-08-16T07:04:09;24.30;;;20.53;;
63346;SDS011;49472;49.880;8.650;2022-08-16T07:06:34;23.60;;;21.07;;
63346;SDS011;49472;49.880;8.650;2022-08-16T07:09:00;23.00;;;21.15;;
63346;SDS011;49472;49.880;8.650;2022-08-16T07:11:25;22.20;;;20.30;;
63346;SDS011;49472;49.880;8.650;2022-08-16T07:13:51;23.80;;;21.47;;
63346;SDS011;49472;49.880;8.650;2022-08-16T07:16:16;23.80;;;21.73;;
63346;SDS011;49472;49.880;8.650;2022-08-16T07:18:42;25.42;;;21.15;;
63346;SDS011;49472;49.880;8.650;2022-08-16T07:21:08;23.48;;;21.25;;
63346;SDS011;49472;49.880;8.650;2022-08-16T07:23:34;27.57;;;21.37;;
63346;SDS011;49472;49.880;8.650;2022-08-16T07:26:00;30.98;;;20.50;;
63346;SDS011;49472;49.880;8.650;2022-08-16T07:28:26;22.53;;;20.80;;
63346;SDS011;49472;49.880;8.650;2022-08-16T07:30:51;25.08;;;20.60;;
63346;SDS011;49472;49.880;8.650;2022-08-16T07:33:16;24.45;;;20.77;;
63346;SDS011;49472;49.880;8.650;2022-08-16T07:35:42;22.57;;;20.23;;
63346;SDS011;49472;49.880;8.650;2022-08-16T07:38:07;22.40;;;20.30;;
63346;SDS011;49472;49.880;8.650;2022-08-16T07:40:33;22.08;;;20.27;;
63346;SDS011;49472;49.880;8.650;2022-08-16T07:42:59;22.63;;;20.27;;
63346;SDS011;49472;49.880;8.650;2022-08-16T07:45:24;22.73;;;20.63;;
63346;SDS011;49472;49.880;8.650;2022-08-16T07:47:49;21.50;;;19.60;;
63346;SDS011;49472;49.880;8.650;2022-08-16T07:50:15;23.30;;;20.80;;
63346;SDS011;49472;49.880;8.650;2022-08-16T07:52:41;21.50;;;19.73;;
63346;SDS011;49472;49.880;8.650;2022-08-16T07:55:07;21.38;;;19.55;;
63346;SDS011;49472;49.880;8.650;2022-08-16T07:57:33;23.60;;;21.38;;
63346;SDS011;49472;49.880;8.650;2022-08-16T07:59:58;22.92;;;20.75;;
63346;SDS011;49472;49.880;8.650;2022-08-16T08:02:24;24.33;;;22.02;;
63346;SDS011;49472;49.880;8.650;2022-08-16T08:04:49;21.23;;;19.13;;
63346;SDS011;49472;49.880;8.650;2022-08-16T08:07:15;22.25;;;20.20;;
63346;SDS011;49472;49.880;8.650;2022-08-16T08:09:40;23.48;;;21.33;;
63346;SDS011;49472;49.880;8.650;2022-08-16T08:12:07;21.80;;;19.80;;
63346;SDS011;49472;49.880;8.650;2022-08-16T08:14:32;20.65;;;19.02;;
63346;SDS011;49472;49.880;8.650;2022-08-16T08:16:58;21.85;;;19.67;;
63346;SDS011;49472;49.880;8.650;2022-08-16T08:19:23;22.30;;;20.27;;
63346;SDS011;49472;49.880;8.650;2022-08-16T08:21:49;27.38;;;19.80;;
63346;SDS011;49472;49.880;8.650;2022-08-16T08:24:16;21.42;;;19.52;;
63346;SDS011;49472;49.880;8.650;2022-08-16T08:26:42;21.02;;;19.23;;
63346;SDS011;49472;49.880;8.650;2022-08-16T08:29:07;25.77;;;19.48;;
63346;SDS011;49472;49.880;8.650;2022-08-16T08:31:32;20.98;;;18.98;;
63346;SDS011;49472;49.880;8.650;2022-08-16T08:34:00;22.05;;;20.25;;
63346;SDS011;49472;49.880;8.650;2022-08-16T08:36:27;21.05;;;19.23;;
63346;SDS011;49472;49.880;8.650;2022-08-16T08:38:53;21.38;;;19.13;;
63346;SDS011;49472;49.880;8.650;2022-08-16T08:41:18;19.33;;;17.60;;
63346;SDS011;49472;49.880;8.650;2022-08-16T08:43:44;19.10;;;17.67;;
63346;SDS011;49472;49.880;8.650;2022-08-16T08:46:09;19.92;;;18.35;;
63346;SDS011;49472;49.880;8.650;2022-08-16T08:48:34;19.48;;;18.05;;
63346;SDS011;49472;49.880;8.650;2022-08-16T08:51:00;19.58;;;17.98;;
63346;SDS011;49472;49.880;8.650;2022-08-16T08:53:26;21.65;;;19.40;;
63346;SDS011;49472;49.880;8.650;2022-08-16T08:55:51;20.23;;;18.42;;
63346;SDS011;49472;49.880;8.650;2022-08-16T08:58:17;20.40;;;18.52;;
63346;SDS011;49472;49.880;8.650;2022-08-16T09:00:42;18.02;;;16.35;;
63346;SDS011;49472;49.880;8.650;2022-08-16T09:03:07;20.75;;;18.77;;
63346;SDS011;49472;49.880;8.650;2022-08-16T09:05:32;20.13;;;18.23;;
63346;SDS011;49472;49.880;8.650;2022-08-16T09:07:59;18.85;;;17.23;;
63346;SDS011;49472;49.880;8.650;2022-08-16T09:10:24;17.58;;;16.33;;
63346;SDS011;49472;49.880;8.650;2022-08-16T09:12:49;18.23;;;16.70;;
63346;SDS011;49472;49.880;8.650;2022-08-16T09:15:15;18.85;;;17.30;;
63346;SDS011;49472;49.880;8.650;2022-08-16T09:17:41;18.70;;;17.05;;
63346;SDS011;49472;49.880;8.650;2022-08-16T09:20:07;18.05;;;16.55;;
63346;SDS011;49472;49.880;8.650;2022-08-16T09:22:33;19.38;;;17.83;;
63346;SDS011;49472;49.880;8.650;2022-08-16T09:24:58;18.42;;;17.13;;
63346;SDS011;49472;49.880;8.650;2022-08-16T09:27:23;21.73;;;19.80;;
63346;SDS011;49472;49.880;8.650;2022-08-16T09:29:49;20.02;;;18.15;;
63346;SDS011;49472;49.880;8.650;2022-08-16T09:32:15;20.70;;;17.48;;
63346;SDS011;49472;49.880;8.650;2022-08-16T09:34:42;22.73;;;18.13;;
63346;SDS011;49472;49.880;8.650;2022-08-16T09:37:07;17.60;;;16.42;;
63346;SDS011;49472;49.880;8.650;2022-08-16T09:39:33;19.35;;;17.85;;
63346;SDS011;49472;49.880;8.650;2022-08-16T09:41:58;17.30;;;16.00;;
63346;SDS011;49472;49.880;8.650;2022-08-16T09:44:24;18.40;;;17.02;;
63346;SDS011;49472;49.880;8.650;2022-08-16T09:46:50;19.30;;;17.80;;
63346;SDS011;49472;49.880;8.650;2022-08-16T09:49:16;19.23;;;17.73;;
63346;SDS011;49472;49.880;8.650;2022-08-16T09:51:41;21.05;;;18.70;;
63346;SDS011;49472;49.880;8.650;2022-08-16T09:54:07;19.08;;;17.50;;
63346;SDS011;49472;49.880;8.650;2022-08-16T09:56:34;20.08;;;18.38;;
63346;SDS011;49472;49.880;8.650;2022-08-16T09:59:02;19.02;;;17.40;;
63346;SDS011;49472;49.880;8.650;2022-08-16T10:01:27;22.58;;;16.80;;
63346;SDS011;49472;49.880;8.650;2022-08-16T10:03:54;20.60;;;18.45;;
63346;SDS011;49472;49.880;8.650;2022-08-16T10:06:21;25.63;;;18.73;;
63346;SDS011;49472;49.880;8.650;2022-08-16T10:08:47;19.90;;;18.30;;
63346;SDS011;49472;49.880;8.650;2022-08-16T10:11:12;19.35;;;17.70;;
63346;SDS011;49472;49.880;8.650;2022-08-16T10:13:56;18.90;;;16.98;;
63346;SDS011;49472;49.880;8.650;2022-08-16T10:16:21;18.02;;;16.67;;
63346;SDS011;49472;49.880;8.650;2022-08-16T10:18:46;19.48;;;17.52;;
63346;SDS011;49472;49.880;8.650;2022-08-16T10:21:15;20.70;;;18.73;;
63346;SDS011;49472;49.880;8.650;2022-08-16T10:23:41;18.10;;;16.65;;
63346;SDS011;49472;49.880;8.650;2022-08-16T10:26:06;19.08;;;17.67;;
63346;SDS011;49472;49.880;8.650;2022-08-16T10:28:32;17.60;;;16.33;;
63346;SDS011;49472;49.880;8.650;2022-08-16T10:31:00;19.38;;;17.77;;
63346;SDS011;49472;49.880;8.650;2022-08-16T10:33:27;19.20;;;17.80;;
63346;SDS011;49472;49.880;8.650;2022-08-16T10:35:52;18.85;;;17.52;;
63346;SDS011;49472;49.880;8.650;2022-08-16T10:38:18;19.33;;;17.58;;
63346;SDS011;49472;49.880;8.650;2022-08-16T10:40:43;18.50;;;17.00;;
63346;SDS011;49472;49.880;8.650;2022-08-16T10:43:09;19.38;;;17.98;;
63346;SDS011;49472;49.880;8.650;2022-08-16T10:45:35;19.52;;;17.98;;
63346;SDS011;49472;49.880;8.650;2022-08-16T10:48:00;18.90;;;17.33;;
63346;SDS011;49472;49.880;8.650;2022-08-16T10:50:26;18.33;;;17.08;;
63346;SDS011;49472;49.880;8.650;2022-08-16T10:52:52;18.30;;;17.00;;
63346;SDS011;49472;49.880;8.650;2022-08-16T10:55:18;18.17;;;16.77;;
63346;SDS011;49472;49.880;8.650;2022-08-16T10:57:44;19.33;;;17.45;;
63346;SDS011;49472;49.880;8.650;2022-08-16T11:00:10;17.25;;;16.13;;
63346;SDS011;49472;49.880;8.650;2022-08-16T11:02:37;17.65;;;16.50;;
63346;SDS011;49472;49.880;8.650;2022-08-16T11:05:03;19.08;;;17.48;;
63346;SDS011;49472;49.880;8.650;2022-08-16T11:07:28;18.88;;;16.25;;
63346;SDS011;49472;49.880;8.650;2022-08-16T11:09:54;17.33;;;16.20;;
63346;SDS011;49472;49.880;8.650;2022-08-16T11:12:19;17.80;;;16.45;;
63346;SDS011;49472;49.880;8.650;2022-08-16T11:14:44;16.55;;;15.30;;
63346;SDS011;49472;49.880;8.650;2022-08-16T11:17:09;18.15;;;16.85;;
63346;SDS011;49472;49.880;8.650;2022-08-16T11:19:37;17.02;;;15.63;;
63346;SDS011;49472;49.880;8.650;2022-08-16T11:22:05;16.30;;;15.10;;
63346;SDS011;49472;49.880;8.650;2022-08-16T11:24:31;16.95;;;15.68;;
63346;SDS011;49472;49.880;8.650;2022-08-16T11:26:56;16.50;;;15.40;;
63346;SDS011;49472;49.880;8.650;2022-08-16T11:29:21;16.52;;;15.23;;
63346;SDS011;49472;49.880;8.650;2022-08-16T11:31:47;15.90;;;14.77;;
63346;SDS011;49472;49.880;8.650;2022-08-16T11:34:13;16.35;;;15.25;;
63346;SDS011;49472;49.880;8.650;2022-08-16T11:36:39;16.08;;;14.88;;
63346;SDS011;49472;49.880;8.650;2022-08-16T11:39:04;16.25;;;14.65;;
63346;SDS011;49472;49.880;8.650;2022-08-16T11:41:29;16.63;;;15.38;;
63346;SDS011;49472;49.880;8.650;2022-08-16T11:43:58;15.63;;;14.60;;
63346;SDS011;49472;49.880;8.650;2022-08-16T11:46:23;15.25;;;14.25;;
63346;SDS011;49472;49.880;8.650;2022-08-16T11:48:49;16.10;;;15.05;;
63346;SDS011;49472;49.880;8.650;2022-08-16T11:51:15;17.08;;;15.98;;
63346;SDS011;49472;49.880;8.650;2022-08-16T11:53:40;17.77;;;16.35;;
63346;SDS011;49472;49.880;8.650;2022-08-16T11:56:06;16.15;;;15.05;;
63346;SDS011;49472;49.880;8.650;2022-08-16T11:58:31;17.67;;;16.45;;
63346;SDS011;49472;49.880;8.650;2022-08-16T12:00:58;16.55;;;15.45;;
63346;SDS011;49472;49.880;8.650;2022-08-16T12:03:24;17.13;;;15.93;;
63346;SDS011;49472;49.880;8.650;2022-08-16T12:05:50;16.23;;;15.00;;
63346;SDS011;49472;49.880;8.650;2022-08-16T12:08:15;16.10;;;15.05;;
63346;SDS011;49472;49.880;8.650;2022-08-16T12:10:41;16.25;;;15.05;;
63346;SDS011;49472;49.880;8.650;2022-08-16T12:13:09;14.95;;;13.68;;
63346;SDS011;49472;49.880;8.650;2022-08-16T12:15:34;14.25;;;13.38;;
63346;SDS011;49472;49.880;8.650;2022-08-16T12:17:59;13.57;;;12.57;;
63346;SDS011;49472;49.880;8.650;2022-08-16T12:20:26;13.60;;;12.70;;
63346;SDS011;49472;49.880;8.650;2022-08-16T12:22:52;13.70;;;12.40;;
63346;SDS011;49472;49.880;8.650;2022-08-16T12:25:18;14.57;;;13.02;;
63346;SDS011;49472;49.880;8.650;2022-08-16T12:27:44;13.63;;;12.52;;
63346;SDS011;49472;49.880;8.650;2022-08-16T12:30:10;15.00;;;13.68;;
63346;SDS011;49472;49.880;8.650;2022-08-16T12:32:37;13.48;;;12.77;;
63346;SDS011;49472;49.880;8.650;2022-08-16T12:35:02;14.27;;;13.15;;
63346;SDS011;49472;49.880;8.650;2022-08-16T12:37:28;13.43;;;12.48;;
63346;SDS011;49472;49.880;8.650;2022-08-16T12:39:54;13.20;;;12.40;;
63346;SDS011;49472;49.880;8.650;2022-08-16T12:42:20;13.45;;;12.63;;
63346;SDS011;49472;49.880;8.650;2022-08-16T12:44:46;12.70;;;12.00;;
63346;SDS011;49472;49.880;8.650;2022-08-16T12:47:13;12.57;;;11.88;;
63346;SDS011;49472;49.880;8.650;2022-08-16T12:49:56;12.95;;;12.25;;
63346;SDS011;49472;49.880;8.650;2022-08-16T12:52:22;12.43;;;11.60;;
63346;SDS011;49472;49.880;8.650;2022-08-16T12:54:47;12.93;;;12.23;;
63346;SDS011;49472;49.880;8.650;2022-08-16T12:57:12;12.20;;;11.60;;
63346;SDS011;49472;49.880;8.650;2022-08-16T12:59:38;12.20;;;11.40;;
63346;SDS011;49472;49.880;8.650;2022-08-16T13:02:04;13.25;;;12.20;;
63346;SDS011;49472;49.880;8.650;2022-08-16T13:04:30;13.07;;;12.35;;
63346;SDS011;49472;49.880;8.650;2022-08-16T13:06:57;12.95;;;11.82;;
63346;SDS011;49472;49.880;8.650;2022-08-16T13:09:23;11.90;;;11.13;;
63346;SDS011;49472;49.880;8.650;2022-08-16T13:11:56;11.13;;;10.52;;
63346;SDS011;49472;49.880;8.650;2022-08-16T13:14:35;11.38;;;10.45;;
63346;SDS011;49472;49.880;8.650;2022-08-16T13:17:03;10.82;;;10.18;;
63346;SDS011;49472;49.880;8.650;2022-08-16T13:19:28;11.82;;;11.02;;
63346;SDS011;49472;49.880;8.650;2022-08-16T13:21:54;11.27;;;10.20;;
63346;SDS011;49472;49.880;8.650;2022-08-16T13:24:19;10.85;;;9.95;;
63346;SDS011;49472;49.880;8.650;2022-08-16T13:26:44;10.75;;;10.07;;
63346;SDS011;49472;49.880;8.650;2022-08-16T13:29:09;10.45;;;9.95;;
63346;SDS011;49472;49.880;8.650;2022-08-16T13:31:35;10.43;;;9.80;;
63346;SDS011;49472;49.880;8.650;2022-08-16T13:34:00;10.25;;;9.52;;
63346;SDS011;49472;49.880;8.650;2022-08-16T13:36:25;9.45;;;8.95;;
63346;SDS011;49472;49.880;8.650;2022-08-16T13:38:51;9.48;;;8.98;;
63346;SDS011;49472;49.880;8.650;2022-08-16T13:41:16;8.90;;;8.50;;
63346;SDS011;49472;49.880;8.650;2022-08-16T13:43:42;8.95;;;8.63;;
63346;SDS011;49472;49.880;8.650;2022-08-16T13:46:07;8.75;;;8.32;;
63346;SDS011;49472;49.880;8.650;2022-08-16T13:48:33;8.82;;;8.43;;
63346;SDS011;49472;49.880;8.650;2022-08-16T13:50:58;8.70;;;8.40;;
63346;SDS011;49472;49.880;8.650;2022-08-16T13:53:24;8.90;;;8.30;;
63346;SDS011;49472;49.880;8.650;2022-08-16T13:55:50;8.63;;;8.32;;
63346;SDS011;49472;49.880;8.650;2022-08-16T13:58:16;8.60;;;8.10;;
63346;SDS011;49472;49.880;8.650;2022-08-16T14:00:41;8.93;;;8.35;;
63346;SDS011;49472;49.880;8.650;2022-08-16T14:03:07;9.00;;;8.50;;
63346;SDS011;49472;49.880;8.650;2022-08-16T14:05:32;8.45;;;8.05;;
63346;SDS011;49472;49.880;8.650;2022-08-16T14:07:57;8.05;;;7.75;;
63346;SDS011;49472;49.880;8.650;2022-08-16T14:10:22;8.00;;;7.67;;
63346;SDS011;49472;49.880;8.650;2022-08-16T14:12:48;7.67;;;7.37;;
63346;SDS011;49472;49.880;8.650;2022-08-16T14:15:15;7.55;;;7.15;;